Terminal Aerodrome Forecast
Issued by NWS Wichita, KS

Home | Current Version | Previous Version | Graphics & Text | Print | Product List | Glossary On
Versions: 1 2 3 4 5 6 7 8 9 10 11 12 13 14 15 16 17 18 19
000
FTUS43 KICT 241125
TAFICT
TAF
KICT 241125Z 2412/2512 18012KT P6SM SCT120 BKN250
     FM242300 15007KT P6SM SCT250
     FM250800 10007KT P6SM VCSH SCT150=

USA.gov is the U.S. government's official web portal to all federal, state and local government web resources and services.